createdAt,value
2022-10-10T00:01:02.662Z,5.20
2022-10-10T00:03:30.340Z,2.28
2022-10-10T00:05:58.126Z,2.90
2022-10-10T00:08:27.269Z,1.70
2022-10-10T00:10:55.032Z,3.30
2022-10-10T00:13:22.874Z,1.75
2022-10-10T00:15:50.623Z,6.28
2022-10-10T00:18:18.402Z,4.05
2022-10-10T00:20:46.157Z,4.18
2022-10-10T00:23:13.804Z,2.97
2022-10-10T00:25:42.967Z,3.83
2022-10-10T00:28:10.637Z,1.40
2022-10-10T00:30:38.389Z,6.10
2022-10-10T00:33:06.595Z,5.28
2022-10-10T00:35:34.337Z,4.32
2022-10-10T00:38:02.152Z,3.97
2022-10-10T00:40:29.952Z,2.22
2022-10-10T00:42:58.969Z,4.15
2022-10-10T00:45:32.172Z,4.13
2022-10-10T00:48:04.059Z,3.78
2022-10-10T00:50:34.567Z,1.92
2022-10-10T00:53:04.413Z,6.38
2022-10-10T00:55:32.205Z,3.30
2022-10-10T00:58:01.369Z,1.30
2022-10-10T01:00:29.134Z,1.77
2022-10-10T01:02:56.859Z,4.03
2022-10-10T01:05:25.311Z,4.90
2022-10-10T01:07:53.383Z,2.20
2022-10-10T01:10:23.176Z,4.07
2022-10-10T01:13:05.234Z,3.05
2022-10-10T01:15:46.713Z,3.00
2022-10-10T01:18:20.929Z,6.30
2022-10-10T01:20:59.482Z,8.18
2022-10-10T01:24:05.437Z,9.93
2022-10-10T01:26:56.147Z,5.63
2022-10-10T01:29:31.198Z,5.75
2022-10-10T01:32:06.699Z,5.72
2022-10-10T01:34:44.982Z,3.65
2022-10-10T01:37:19.685Z,3.53
2022-10-10T01:39:55.817Z,4.47
2022-10-10T01:42:29.575Z,5.28
2022-10-10T01:44:59.213Z,1.67
2022-10-10T01:47:26.946Z,2.45
2022-10-10T01:50:00.394Z,3.40
2022-10-10T01:52:41.213Z,6.32
2022-10-10T01:55:30.186Z,5.20
2022-10-10T01:58:11.547Z,5.38
2022-10-10T02:00:49.521Z,6.15
2022-10-10T02:03:23.130Z,2.40
2022-10-10T02:05:58.049Z,2.70
2022-10-10T02:08:32.877Z,4.47
2022-10-10T02:11:03.830Z,4.38
2022-10-10T02:13:37.471Z,3.67
2022-10-10T02:16:10.883Z,3.13
2022-10-10T02:21:09.631Z,6.00
2022-10-10T02:23:38.098Z,2.83
2022-10-10T02:26:05.958Z,3.55
2022-10-10T02:28:41.062Z,3.33
2022-10-10T02:31:16.365Z,4.30
2022-10-10T02:33:49.393Z,7.93
2022-10-10T02:36:19.923Z,2.53
2022-10-10T02:38:48.997Z,7.80
2022-10-10T02:41:19.557Z,5.38
2022-10-10T02:43:48.249Z,3.13
2022-10-10T02:46:17.901Z,3.53
2022-10-10T02:48:46.089Z,2.85
2022-10-10T02:51:16.114Z,3.05
2022-10-10T02:53:44.158Z,7.57
2022-10-10T02:56:12.157Z,3.00
2022-10-10T02:58:39.913Z,2.75
2022-10-10T03:01:07.713Z,3.30
2022-10-10T03:03:37.198Z,3.38
2022-10-10T03:06:05.215Z,3.25
2022-10-10T03:08:32.890Z,5.78
2022-10-10T03:11:02.705Z,1.70
2022-10-10T03:13:30.425Z,2.45
2022-10-10T03:15:58.325Z,3.80
2022-10-10T03:18:26.173Z,4.45
2022-10-10T03:20:57.162Z,3.85
2022-10-10T03:23:25.906Z,2.08
2022-10-10T03:25:54.092Z,2.35
2022-10-10T03:28:22.242Z,4.18
2022-10-10T03:30:50.223Z,2.35
2022-10-10T03:33:17.986Z,3.20
2022-10-10T03:35:45.719Z,4.00
2022-10-10T03:38:15.639Z,4.10
2022-10-10T03:40:44.671Z,4.15
2022-10-10T03:43:13.884Z,2.30
2022-10-10T03:45:43.301Z,5.72
2022-10-10T03:48:11.501Z,4.88
2022-10-10T03:50:39.612Z,2.25
2022-10-10T03:53:07.609Z,2.28
2022-10-10T03:55:36.823Z,4.38
2022-10-10T03:58:04.489Z,5.38
2022-10-10T04:00:32.260Z,1.95
2022-10-10T04:03:00.763Z,6.82
2022-10-10T04:05:28.576Z,11.10
2022-10-10T04:07:56.258Z,12.38
2022-10-10T04:10:23.974Z,7.53
2022-10-10T04:12:53.360Z,20.23
2022-10-10T04:15:21.274Z,9.82
2022-10-10T04:17:49.430Z,12.00
2022-10-10T04:20:17.999Z,14.27
2022-10-10T04:22:45.787Z,6.10
2022-10-10T04:25:13.588Z,11.68
2022-10-10T04:27:41.245Z,16.13
2022-10-10T04:30:11.599Z,14.88
2022-10-10T04:32:40.046Z,13.93
2022-10-10T04:35:08.295Z,8.40
2022-10-10T04:37:36.827Z,12.43
2022-10-10T04:40:05.146Z,10.10
2022-10-10T04:42:32.894Z,12.88
2022-10-10T04:45:00.649Z,11.40
2022-10-10T04:47:29.719Z,18.70
2022-10-10T04:49:57.442Z,9.10
2022-10-10T04:52:25.122Z,11.48
2022-10-10T04:54:52.918Z,9.93
2022-10-10T04:57:20.593Z,14.43
2022-10-10T04:59:48.377Z,13.68
2022-10-10T05:02:16.080Z,6.18
2022-10-10T05:04:45.166Z,11.70
2022-10-10T05:07:13.017Z,7.47
2022-10-10T05:09:40.737Z,9.25
2022-10-10T05:12:08.406Z,16.52
2022-10-10T05:14:36.141Z,12.25
2022-10-10T05:17:03.903Z,12.10
2022-10-10T05:19:31.571Z,11.48
2022-10-10T05:22:00.728Z,12.77
2022-10-10T05:24:28.640Z,12.02
2022-10-10T05:26:56.309Z,10.05
2022-10-10T05:29:24.235Z,30.73
2022-10-10T05:31:52.015Z,21.70
2022-10-10T05:34:19.753Z,18.65
2022-10-10T05:36:47.478Z,16.27
2022-10-10T05:39:16.638Z,12.38
2022-10-10T05:41:44.399Z,11.45
2022-10-10T05:44:12.137Z,22.33
2022-10-10T05:46:39.873Z,19.83
2022-10-10T05:49:07.949Z,14.18
2022-10-10T05:51:35.707Z,18.23
2022-10-10T05:54:05.113Z,8.23
2022-10-10T05:56:34.264Z,12.80
2022-10-10T05:59:01.946Z,15.43
2022-10-10T06:01:29.709Z,15.02
2022-10-10T06:03:57.400Z,17.98
2022-10-10T06:06:27.091Z,17.52
2022-10-10T06:08:55.778Z,12.27
2022-10-10T06:11:25.021Z,20.52
2022-10-10T06:13:54.326Z,13.95
2022-10-10T06:16:22.465Z,11.48
2022-10-10T06:18:50.566Z,11.50
2022-10-10T06:21:18.807Z,12.02
2022-10-10T06:23:47.209Z,15.32
2022-10-10T06:26:15.286Z,12.95
2022-10-10T06:28:43.100Z,13.70
2022-10-10T06:31:14.497Z,13.63
2022-10-10T06:33:45.326Z,16.27
2022-10-10T06:36:15.225Z,6.53
2022-10-10T06:38:44.818Z,12.55
2022-10-10T06:41:13.482Z,9.98
2022-10-10T06:43:42.306Z,14.13
2022-10-10T06:46:11.642Z,13.95
2022-10-10T06:48:40.763Z,10.95
2022-10-10T06:51:10.458Z,14.27
2022-10-10T06:53:38.365Z,11.48
2022-10-10T06:56:06.313Z,11.05
2022-10-10T06:58:34.258Z,17.10
2022-10-10T07:01:05.412Z,11.65
2022-10-10T07:03:33.564Z,10.30
2022-10-10T07:06:03.993Z,9.93
2022-10-10T07:08:31.963Z,10.32
2022-10-10T07:10:59.739Z,17.17
2022-10-10T07:13:27.449Z,12.07
2022-10-10T07:15:55.317Z,12.25
2022-10-10T07:18:23.099Z,7.68
2022-10-10T07:20:50.830Z,13.07
2022-10-10T07:23:20.283Z,12.65
2022-10-10T07:25:47.997Z,11.27
2022-10-10T07:28:15.864Z,9.63
2022-10-10T07:30:45.126Z,13.48
2022-10-10T07:33:13.511Z,17.23
2022-10-10T07:35:41.578Z,41.38
2022-10-10T07:38:11.768Z,29.02
2022-10-10T07:40:42.008Z,58.20
2022-10-10T07:43:09.708Z,32.08
2022-10-10T07:45:37.781Z,18.05
2022-10-10T07:48:06.481Z,25.33
2022-10-10T07:50:34.240Z,12.23
2022-10-10T07:53:02.078Z,11.10
2022-10-10T07:55:29.791Z,16.05
2022-10-10T07:58:00.199Z,16.80
2022-10-10T08:00:28.109Z,12.77
2022-10-10T08:02:55.817Z,8.50
2022-10-10T08:05:23.614Z,6.20
2022-10-10T08:07:51.570Z,12.05
2022-10-10T08:10:19.597Z,9.35
2022-10-10T08:12:47.319Z,9.23
2022-10-10T08:15:16.502Z,12.10
2022-10-10T08:17:44.191Z,9.25
2022-10-10T08:20:11.974Z,10.00
2022-10-10T08:22:39.969Z,7.65
2022-10-10T08:25:08.512Z,11.30
2022-10-10T08:27:36.256Z,11.93
2022-10-10T08:30:04.773Z,19.52
2022-10-10T08:32:33.960Z,11.00
2022-10-10T08:35:01.659Z,10.98
2022-10-10T08:37:35.145Z,17.77
2022-10-10T08:40:05.952Z,10.30
2022-10-10T08:42:42.016Z,12.32
2022-10-10T08:45:17.392Z,14.43
2022-10-10T08:47:51.971Z,11.30
2022-10-10T08:50:23.077Z,10.02
2022-10-10T08:52:56.072Z,12.75
2022-10-10T08:55:30.937Z,8.00
2022-10-10T08:58:04.820Z,25.27
2022-10-10T09:00:38.827Z,12.65
2022-10-10T09:03:20.146Z,21.13
2022-10-10T09:05:59.649Z,9.93
2022-10-10T09:08:42.389Z,7.97
2022-10-10T09:11:21.305Z,12.82
2022-10-10T09:14:00.498Z,6.03
2022-10-10T09:16:37.401Z,16.20
2022-10-10T09:19:24.049Z,15.90
2022-10-10T09:21:57.694Z,12.98
2022-10-10T09:24:28.302Z,9.70
2022-10-10T09:27:00.226Z,6.20
2022-10-10T09:29:33.969Z,16.27
2022-10-10T09:32:10.573Z,14.20
2022-10-10T09:34:42.726Z,10.35
2022-10-10T09:37:24.396Z,20.05
2022-10-10T09:40:02.990Z,11.77
2022-10-10T09:42:36.608Z,9.23
2022-10-10T09:45:14.030Z,9.77
2022-10-10T09:47:42.169Z,12.70
2022-10-10T09:50:15.870Z,12.07
2022-10-10T09:52:45.221Z,6.07
2022-10-10T09:55:28.099Z,8.30
2022-10-10T10:00:33.840Z,10.85
2022-10-10T10:03:07.344Z,6.90
2022-10-10T10:05:36.713Z,7.70
2022-10-10T10:08:04.658Z,11.05
2022-10-10T10:10:36.721Z,6.30
2022-10-10T10:13:13.221Z,15.32
2022-10-10T10:15:48.459Z,3.42
2022-10-10T10:18:25.023Z,11.15
2022-10-10T10:20:56.742Z,7.53
2022-10-10T10:23:27.614Z,5.85
2022-10-10T10:26:00.220Z,14.73
2022-10-10T10:30:59.483Z,6.45
2022-10-10T10:33:39.382Z,5.72
2022-10-10T10:36:21.063Z,9.25
2022-10-10T10:38:53.809Z,10.40
2022-10-10T10:41:32.514Z,10.75
2022-10-10T10:44:32.041Z,25.35
2022-10-10T10:47:12.208Z,6.07
2022-10-10T10:49:51.511Z,10.50
2022-10-10T10:52:55.582Z,13.30
2022-10-10T10:55:33.230Z,10.63
2022-10-10T11:01:44.821Z,9.02
2022-10-10T11:05:17.847Z,5.20
2022-10-10T11:07:21.105Z,7.93
2022-10-10T11:09:57.843Z,5.90
2022-10-10T11:12:39.445Z,10.23
2022-10-10T11:15:14.194Z,10.38
2022-10-10T11:17:46.418Z,10.07
2022-10-10T11:20:25.130Z,8.80
2022-10-10T11:22:56.794Z,11.07
2022-10-10T11:25:30.730Z,13.13
2022-10-10T11:28:03.829Z,9.18
2022-10-10T11:33:11.403Z,7.45
2022-10-10T11:35:44.111Z,11.52
2022-10-10T11:38:18.079Z,14.55
2022-10-10T11:40:53.843Z,14.43
2022-10-10T11:43:31.179Z,8.88
2022-10-10T11:46:07.737Z,7.00
2022-10-10T11:48:47.125Z,11.50
2022-10-10T11:51:25.743Z,11.77
2022-10-10T11:53:59.614Z,8.60
2022-10-10T11:56:33.583Z,10.73
2022-10-10T11:59:07.098Z,19.40
2022-10-10T12:01:39.151Z,9.73
2022-10-10T12:04:06.811Z,8.52
2022-10-10T12:06:40.381Z,11.05
2022-10-10T12:09:14.718Z,14.20
2022-10-10T12:11:47.038Z,6.38
2022-10-10T12:14:17.641Z,8.85
2022-10-10T12:16:46.045Z,7.75
2022-10-10T12:19:19.943Z,7.57
2022-10-10T12:21:57.239Z,4.32
2022-10-10T12:24:26.549Z,8.85
2022-10-10T12:27:30.368Z,6.45
2022-10-10T12:32:44.974Z,14.55
2022-10-10T12:35:34.536Z,5.60
2022-10-10T12:38:23.980Z,2.67
2022-10-10T12:41:12.565Z,1.95
2022-10-10T12:43:49.521Z,5.47
2022-10-10T12:46:30.065Z,2.60
2022-10-10T12:49:04.121Z,3.00
2022-10-10T12:51:34.965Z,6.38
2022-10-10T12:54:06.137Z,2.92
2022-10-10T12:56:40.708Z,3.72
2022-10-10T12:59:19.114Z,4.35
2022-10-10T13:01:53.243Z,2.85
2022-10-10T13:04:21.538Z,2.90
2022-10-10T13:06:53.437Z,6.65
2022-10-10T13:09:23.838Z,5.07
2022-10-10T13:11:57.183Z,4.50
2022-10-10T13:14:28.242Z,5.30
2022-10-10T13:16:55.969Z,4.40
2022-10-10T13:19:25.120Z,5.93
2022-10-10T13:21:55.710Z,1.60
2022-10-10T13:24:29.458Z,6.30
2022-10-10T13:26:57.446Z,2.67
2022-10-10T13:29:31.289Z,6.72
2022-10-10T13:32:01.934Z,2.70
2022-10-10T13:34:33.076Z,2.78
2022-10-10T13:37:02.882Z,4.75
2022-10-10T13:39:33.674Z,0.98
2022-10-10T13:42:01.489Z,5.90
2022-10-10T13:44:35.093Z,2.80
2022-10-10T13:47:35.990Z,1.63
2022-10-10T13:50:03.840Z,1.67
2022-10-10T13:52:31.539Z,1.33
2022-10-10T13:55:15.303Z,0.95
2022-10-10T13:57:43.245Z,1.75
2022-10-10T14:00:19.978Z,1.42
2022-10-10T14:02:48.265Z,1.60
2022-10-10T14:05:20.589Z,1.20
2022-10-10T14:07:50.742Z,1.80
2022-10-10T14:10:22.497Z,1.05
2022-10-10T14:12:53.245Z,1.38
2022-10-10T14:15:45.401Z,1.10
2022-10-10T14:18:17.276Z,2.20
2022-10-10T14:20:45.224Z,1.85
2022-10-10T14:23:13.457Z,1.85
2022-10-10T14:25:42.534Z,2.30
2022-10-10T14:28:15.896Z,1.60
2022-10-10T14:30:45.302Z,4.60
2022-10-10T14:33:13.917Z,3.85
2022-10-10T14:35:42.389Z,5.15
2022-10-10T14:38:11.536Z,2.33
2022-10-10T14:40:39.279Z,2.70
2022-10-10T14:43:06.950Z,2.60
2022-10-10T14:45:35.101Z,3.22
2022-10-10T14:48:04.494Z,4.13
2022-10-10T14:50:34.409Z,3.75
2022-10-10T14:53:02.405Z,4.68
2022-10-10T14:55:30.124Z,7.50
2022-10-10T14:57:57.805Z,3.90
2022-10-10T15:00:27.418Z,2.63
2022-10-10T15:02:55.441Z,9.38
2022-10-10T15:05:24.624Z,4.78
2022-10-10T15:07:53.794Z,4.93
2022-10-10T15:10:37.121Z,2.78
2022-10-10T15:13:04.952Z,9.77
2022-10-10T15:15:32.746Z,7.65
2022-10-10T15:18:00.988Z,4.72
2022-10-10T15:20:31.731Z,8.32
2022-10-10T15:22:59.948Z,4.07
2022-10-10T15:25:33.413Z,5.68
2022-10-10T15:28:03.209Z,2.55
2022-10-10T15:30:31.500Z,4.22
2022-10-10T15:32:59.195Z,9.95
2022-10-10T15:35:40.010Z,4.68
2022-10-10T15:38:16.670Z,1.90
2022-10-10T15:40:44.402Z,8.05
2022-10-10T15:43:12.078Z,2.30
2022-10-10T15:45:55.427Z,3.88
2022-10-10T15:48:24.121Z,4.13
2022-10-10T15:50:52.372Z,2.38
2022-10-10T15:53:21.439Z,4.03
2022-10-10T15:55:49.329Z,2.20
2022-10-10T15:58:17.274Z,4.25
2022-10-10T16:00:45.779Z,2.75
2022-10-10T16:03:13.745Z,0.60
2022-10-10T16:05:43.006Z,1.08
2022-10-10T16:08:12.046Z,2.17
2022-10-10T16:10:43.069Z,4.57
2022-10-10T16:13:11.479Z,1.58
2022-10-10T16:15:39.229Z,8.15
2022-10-10T16:18:07.016Z,1.20
2022-10-10T16:20:34.751Z,2.22
2022-10-10T16:23:02.431Z,1.85
2022-10-10T16:25:30.198Z,2.63
2022-10-10T16:27:59.450Z,1.70
2022-10-10T16:30:27.180Z,1.10
2022-10-10T16:32:54.842Z,1.05
2022-10-10T16:35:22.736Z,0.50
2022-10-10T16:37:50.421Z,1.35
2022-10-10T16:40:18.719Z,1.67
2022-10-10T16:42:46.474Z,0.75
2022-10-10T16:45:15.645Z,0.98
2022-10-10T17:00:38.458Z,1.38
2022-10-10T17:03:06.152Z,1.88
2022-10-10T17:05:33.902Z,1.38
2022-10-10T17:08:01.579Z,0.57
2022-10-10T17:10:29.590Z,3.20
2022-10-10T17:12:57.274Z,0.75
2022-10-10T17:15:25.004Z,1.15
2022-10-10T17:17:54.102Z,0.30
2022-10-10T17:20:21.846Z,0.60
2022-10-10T17:22:49.560Z,1.67
2022-10-10T17:25:17.456Z,0.82
2022-10-10T17:27:45.135Z,0.52
2022-10-10T17:30:14.243Z,0.50
2022-10-10T17:32:43.127Z,1.00
2022-10-10T17:35:12.936Z,1.58
2022-10-10T17:37:40.629Z,0.82
2022-10-10T17:40:10.102Z,2.17
2022-10-10T17:42:37.802Z,1.85
2022-10-10T17:45:05.957Z,1.35
2022-10-10T17:47:34.785Z,1.05
2022-10-10T17:50:02.597Z,8.75
2022-10-10T17:52:31.691Z,1.70
2022-10-10T17:54:59.353Z,3.08
2022-10-10T17:57:27.434Z,1.98
2022-10-10T17:59:55.157Z,2.45
2022-10-10T18:02:22.828Z,1.52
2022-10-10T18:04:50.561Z,1.98
2022-10-10T18:07:18.833Z,1.40
2022-10-10T18:09:51.949Z,1.30
2022-10-10T18:14:47.457Z,1.85
2022-10-10T18:17:15.238Z,2.20
2022-10-10T18:19:43.272Z,3.10
2022-10-10T18:22:10.939Z,3.08
2022-10-10T18:24:38.694Z,1.67
2022-10-10T18:27:08.697Z,3.42
2022-10-10T18:29:37.299Z,1.67
2022-10-10T18:32:05.486Z,1.48
2022-10-10T18:34:33.294Z,6.32
2022-10-10T18:37:00.971Z,2.45
2022-10-10T18:39:33.060Z,2.72
2022-10-10T18:42:01.064Z,5.60
2022-10-10T18:44:30.551Z,3.88
2022-10-10T18:46:58.315Z,5.93
2022-10-10T18:49:26.438Z,1.83
2022-10-10T18:51:54.282Z,4.68
2022-10-10T18:54:22.758Z,6.47
2022-10-10T18:56:50.462Z,5.22
2022-10-10T18:59:21.861Z,3.90
2022-10-10T19:01:52.470Z,4.63
2022-10-10T19:04:21.603Z,4.53
2022-10-10T19:06:53.177Z,10.75
2022-10-10T19:09:24.629Z,4.00
2022-10-10T19:11:53.342Z,2.90
2022-10-10T19:14:21.596Z,7.00
2022-10-10T19:16:50.650Z,7.70
2022-10-10T19:19:20.306Z,5.72
2022-10-10T19:21:49.572Z,8.75
2022-10-10T19:24:20.814Z,6.38
2022-10-10T19:26:53.276Z,6.63
2022-10-10T19:29:22.003Z,12.48
2022-10-10T19:31:51.145Z,5.10
2022-10-10T19:34:18.911Z,6.20
2022-10-10T19:36:46.844Z,8.98
2022-10-10T19:39:14.576Z,7.78
2022-10-10T19:41:42.317Z,11.07
2022-10-10T19:44:10.119Z,9.23
2022-10-10T19:46:37.940Z,15.10
2022-10-10T19:49:07.267Z,6.72
2022-10-10T19:51:35.055Z,8.50
2022-10-10T19:54:02.719Z,10.05
2022-10-10T19:56:30.462Z,8.88
2022-10-10T19:59:00.528Z,11.45
2022-10-10T20:01:30.450Z,10.18
2022-10-10T20:03:59.021Z,9.73
2022-10-10T20:06:28.775Z,8.30
2022-10-10T20:08:56.881Z,8.10
2022-10-10T20:11:26.226Z,8.35
2022-10-10T20:13:55.356Z,8.55
2022-10-10T20:16:24.016Z,9.18
2022-10-10T20:18:51.826Z,8.50
2022-10-10T20:21:22.001Z,15.30
2022-10-10T20:23:51.385Z,15.82
2022-10-10T20:26:21.911Z,6.70
2022-10-10T20:28:50.578Z,15.10
2022-10-10T20:31:20.147Z,10.82
2022-10-10T20:33:48.607Z,6.57
2022-10-10T20:36:17.021Z,8.68
2022-10-10T20:38:45.693Z,5.22
2022-10-10T20:41:15.202Z,8.60
2022-10-10T20:43:43.069Z,12.15
2022-10-10T20:46:12.305Z,6.30
2022-10-10T20:48:40.604Z,12.43
2022-10-10T20:51:10.090Z,7.80
2022-10-10T20:53:39.404Z,8.45
2022-10-10T20:56:09.423Z,9.25
2022-10-10T20:58:39.378Z,7.20
2022-10-10T21:01:09.593Z,7.07
2022-10-10T21:03:37.894Z,11.30
2022-10-10T21:06:07.719Z,8.55
2022-10-10T21:08:35.791Z,4.07
2022-10-10T21:11:06.248Z,4.93
2022-10-10T21:13:34.922Z,6.75
2022-10-10T21:16:07.529Z,15.40
2022-10-10T21:18:35.568Z,4.80
2022-10-10T21:21:05.241Z,4.30
2022-10-10T21:23:36.589Z,2.60
2022-10-10T21:26:06.360Z,4.15
2022-10-10T21:28:34.679Z,3.28
2022-10-10T21:31:04.289Z,5.88
2022-10-10T21:33:32.739Z,6.07
2022-10-10T21:36:00.518Z,6.13
2022-10-10T21:38:28.351Z,4.25
2022-10-10T21:40:56.018Z,7.38
2022-10-10T21:43:23.787Z,3.03
2022-10-10T21:45:51.526Z,2.85
2022-10-10T21:48:20.545Z,10.38
2022-10-10T21:50:48.274Z,6.57
2022-10-10T21:53:15.934Z,10.35
2022-10-10T21:55:43.834Z,3.00
2022-10-10T21:58:11.501Z,4.03
2022-10-10T22:00:39.329Z,6.88
2022-10-10T22:03:07.104Z,7.07
2022-10-10T22:05:36.770Z,4.40
2022-10-10T22:08:04.998Z,9.90
2022-10-10T22:10:34.172Z,6.70
2022-10-10T22:13:02.720Z,1.52
2022-10-10T22:15:31.142Z,8.63
2022-10-10T22:17:59.045Z,5.43
2022-10-10T22:20:26.834Z,3.90
2022-10-10T22:22:55.905Z,6.93
2022-10-10T22:25:23.642Z,4.53
2022-10-10T22:27:54.007Z,4.60
2022-10-10T22:30:24.826Z,5.50
2022-10-10T22:32:52.791Z,3.80
2022-10-10T22:35:20.541Z,7.85
2022-10-10T22:37:48.206Z,2.53
2022-10-10T22:40:17.641Z,11.45
2022-10-10T22:42:45.335Z,3.70
2022-10-10T22:45:13.079Z,2.67
2022-10-10T22:47:40.714Z,12.02
2022-10-10T22:50:09.261Z,5.07
2022-10-10T22:52:36.953Z,3.33
2022-10-10T22:55:05.183Z,7.97
2022-10-10T22:57:34.922Z,5.60
2022-10-10T23:00:03.223Z,3.97
2022-10-10T23:02:30.943Z,8.52
2022-10-10T23:04:59.423Z,5.85
2022-10-10T23:07:27.565Z,3.28
2022-10-10T23:09:55.289Z,4.28
2022-10-10T23:12:22.993Z,9.30
2022-10-10T23:14:52.120Z,0.93
2022-10-10T23:17:19.781Z,1.52
2022-10-10T23:19:47.508Z,3.17
2022-10-10T23:22:15.215Z,5.60
2022-10-10T23:24:43.037Z,3.10
2022-10-10T23:27:10.766Z,4.18
2022-10-10T23:29:38.557Z,4.57
2022-10-10T23:32:07.657Z,5.15
2022-10-10T23:34:35.501Z,4.63
2022-10-10T23:37:03.209Z,7.13
2022-10-10T23:39:30.996Z,2.25
2022-10-10T23:41:58.641Z,10.73
2022-10-10T23:44:26.522Z,2.63
2022-10-10T23:46:54.218Z,4.65
2022-10-10T23:49:23.301Z,5.35
2022-10-10T23:51:50.986Z,4.43
2022-10-10T23:54:18.798Z,5.70
2022-10-10T23:56:46.486Z,1.08
2022-10-10T23:59:14.210Z,5.85
